ESKN

Stockholm Skavsta Airport

Stockholm / Nyköping, Sweden
METAR ESKN 092150Z 29009KT 9999 OVC008 01/00 Q0986 R26/290195
Observed Flight Rules
Dec-9 @ 21:50 UTC (11 minutes ago) Instrument Flight Rules
Wind Visibility Clouds
290° at 9 knots 10,000+ meters
  • Overcast at 800' AGL
Temperatures Readings
Current 1°C / 34°F
Dewpoint 0°C / 32°F
Humidity 93%
Altimeter 29.11" Hg
Pressure 986 hPa
Elevation 43
METAR ESKN 092150Z 29009KT 9999 OVC008 01/00 Q0986 R26/290195
Observed Flight Rules
Dec-9 @ 21:50 UTC
(11 minutes ago)
IFR
Wind Visibility
290° at 9 knots 10,000+ meters
Clouds
  • Overcast at 800' AGL
Temperature Dewpoint
1°C / 34°F 0°C / 32°F
Humidity Altimeter Pressure
93% 29.11" Hg 986 hPa